createdAt,value
2022-10-09T00:02:19.007Z,11.53
2022-10-09T00:07:18.537Z,11.49
2022-10-09T00:12:18.642Z,11.34
2022-10-09T00:17:18.580Z,11.43
2022-10-09T00:22:18.447Z,11.42
2022-10-09T00:27:20.754Z,11.42
2022-10-09T00:32:18.785Z,11.49
2022-10-09T00:37:18.589Z,11.55
2022-10-09T00:42:18.541Z,11.57
2022-10-09T00:47:27.591Z,11.61
2022-10-09T00:52:20.388Z,11.53
2022-10-09T00:57:19.053Z,11.45
2022-10-09T01:01:23.031Z,11.42
2022-10-09T01:02:18.760Z,11.42
2022-10-09T01:07:28.788Z,11.36
2022-10-09T01:12:25.537Z,11.27
2022-10-09T01:17:24.912Z,11.28
2022-10-09T01:18:22.076Z,11.25
2022-10-09T01:22:30.068Z,11.25
2022-10-09T01:27:22.493Z,11.28
2022-10-09T01:32:22.209Z,11.22
2022-10-09T01:37:21.349Z,11.18
2022-10-09T01:42:22.490Z,11.14
2022-10-09T01:47:20.667Z,11.11
2022-10-09T01:52:29.830Z,11.05
2022-10-09T01:57:28.035Z,11.07
2022-10-09T02:02:19.967Z,11.09
2022-10-09T02:07:19.548Z,11.08
2022-10-09T02:12:21.009Z,11.03
2022-10-09T02:17:25.460Z,10.96
2022-10-09T02:22:23.688Z,10.76
2022-10-09T02:27:20.919Z,10.65
2022-10-09T02:32:19.289Z,10.52
2022-10-09T02:37:18.619Z,10.40
2022-10-09T02:42:18.646Z,10.41
2022-10-09T02:45:53.434Z,10.29
2022-10-09T02:47:18.604Z,10.29
2022-10-09T02:52:18.466Z,10.33
2022-10-09T02:57:18.930Z,10.29
2022-10-09T03:02:18.539Z,10.28
2022-10-09T03:07:18.537Z,10.24
2022-10-09T03:12:21.317Z,10.14
2022-10-09T03:17:18.324Z,10.14
2022-10-09T03:22:18.326Z,10.12
2022-10-09T03:27:18.580Z,10.01
2022-10-09T03:32:18.550Z,9.91
2022-10-09T03:37:18.590Z,9.93
2022-10-09T03:42:18.571Z,9.89
2022-10-09T03:47:18.470Z,9.87
2022-10-09T03:51:16.562Z,9.76
2022-10-09T03:52:18.436Z,9.76
2022-10-09T03:57:18.753Z,9.74
2022-10-09T04:02:18.384Z,9.76
2022-10-09T04:07:18.563Z,9.83
2022-10-09T04:07:22.696Z,9.83
2022-10-09T04:12:18.625Z,9.86
2022-10-09T04:17:18.530Z,9.87
2022-10-09T04:22:18.541Z,9.89
2022-10-09T04:27:19.007Z,9.86
2022-10-09T04:32:18.311Z,9.80
2022-10-09T04:37:18.852Z,9.77
2022-10-09T04:42:18.335Z,9.79
2022-10-09T04:47:18.520Z,9.77
2022-10-09T04:52:18.378Z,9.77
2022-10-09T04:57:18.807Z,9.72
2022-10-09T05:02:18.312Z,9.70
2022-10-09T05:07:18.528Z,9.58
2022-10-09T05:07:57.513Z,9.58
2022-10-09T05:09:47.814Z,9.65
2022-10-09T05:12:18.366Z,9.65
2022-10-09T05:17:22.722Z,9.64
2022-10-09T05:22:18.565Z,9.65
2022-10-09T05:27:18.278Z,9.67
2022-10-09T05:32:18.373Z,9.68
2022-10-09T05:37:18.774Z,9.76
2022-10-09T05:42:18.246Z,9.77
2022-10-09T05:47:18.863Z,9.81
2022-10-09T05:52:18.452Z,9.83
2022-10-09T05:57:18.356Z,9.84
2022-10-09T06:02:18.330Z,9.88
2022-10-09T06:07:18.787Z,9.98
2022-10-09T06:12:18.204Z,10.11
2022-10-09T06:17:18.333Z,10.18
2022-10-09T06:22:18.378Z,10.26
2022-10-09T06:27:18.185Z,10.26
2022-10-09T06:32:18.322Z,10.29
2022-10-09T06:35:13.583Z,10.42
2022-10-09T06:37:18.178Z,10.42
2022-10-09T06:42:18.309Z,10.43
2022-10-09T06:47:18.591Z,10.49
2022-10-09T06:52:18.288Z,10.56
2022-10-09T06:57:18.405Z,10.54
2022-10-09T07:02:18.692Z,10.56
2022-10-09T07:07:18.255Z,10.68
2022-10-09T07:12:18.288Z,10.75
2022-10-09T07:17:18.531Z,10.96
2022-10-09T07:22:18.167Z,11.05
2022-10-09T07:27:18.332Z,11.08
2022-10-09T07:32:18.873Z,11.03
2022-10-09T07:37:18.154Z,11.07
2022-10-09T07:42:18.329Z,11.08
2022-10-09T07:45:18.395Z,10.99
2022-10-09T07:47:18.247Z,10.99
2022-10-09T07:51:44.491Z,10.99
2022-10-09T07:52:18.117Z,10.99
2022-10-09T07:57:18.434Z,11.09
2022-10-09T08:02:18.253Z,11.24
2022-10-09T08:07:18.245Z,11.28
2022-10-09T08:12:18.631Z,11.36
2022-10-09T08:17:18.140Z,11.48
2022-10-09T08:22:18.216Z,11.48
2022-10-09T08:27:18.169Z,11.62
2022-10-09T08:32:18.116Z,11.74
2022-10-09T08:37:18.292Z,11.70
2022-10-09T08:39:19.753Z,11.54
2022-10-09T08:42:25.996Z,11.54
2022-10-09T08:47:22.920Z,11.33
2022-10-09T08:52:24.768Z,11.44
2022-10-09T08:57:21.401Z,11.59
2022-10-09T09:02:30.844Z,11.68
2022-10-09T09:07:25.895Z,11.77
2022-10-09T09:12:33.211Z,11.70
2022-10-09T09:17:25.984Z,11.89
2022-10-09T09:22:18.779Z,12.46
2022-10-09T09:22:46.759Z,12.46
2022-10-09T09:27:20.663Z,12.69
2022-10-09T09:29:01.542Z,12.71
2022-10-09T09:32:21.888Z,12.71
2022-10-09T09:37:18.560Z,12.86
2022-10-09T09:42:19.717Z,12.78
2022-10-09T09:47:23.343Z,12.69
2022-10-09T09:49:17.538Z,12.70
2022-10-09T09:52:18.409Z,12.70
2022-10-09T09:57:28.467Z,12.90
2022-10-09T10:02:20.852Z,13.11
2022-10-09T10:07:28.768Z,13.24
2022-10-09T10:12:18.163Z,13.25
2022-10-09T10:17:26.849Z,13.30
2022-10-09T10:22:23.424Z,13.25
2022-10-09T10:27:23.877Z,13.06
2022-10-09T10:32:25.716Z,12.68
2022-10-09T10:37:29.794Z,12.66
2022-10-09T10:39:33.502Z,12.62
2022-10-09T10:42:23.148Z,12.62
2022-10-09T10:47:22.884Z,12.50
2022-10-09T10:49:34.083Z,12.39
2022-10-09T10:52:32.240Z,12.39
2022-10-09T10:57:24.467Z,12.37
2022-10-09T11:02:41.052Z,12.62
2022-10-09T11:07:30.516Z,12.42
2022-10-09T11:12:43.734Z,12.32
2022-10-09T11:12:48.784Z,12.32
2022-10-09T11:12:56.145Z,12.32
2022-10-09T11:17:30.044Z,12.21
2022-10-09T11:22:33.160Z,12.13
2022-10-09T11:27:22.226Z,12.17
2022-10-09T11:32:23.707Z,12.27
2022-10-09T11:37:23.192Z,12.23
2022-10-09T11:42:22.121Z,12.17
2022-10-09T11:47:24.136Z,12.32
2022-10-09T11:52:23.813Z,12.38
2022-10-09T11:57:28.925Z,12.42
2022-10-09T12:02:24.976Z,12.43
2022-10-09T12:07:27.403Z,12.71
2022-10-09T12:12:22.097Z,12.70
2022-10-09T12:17:33.412Z,12.44
2022-10-09T12:20:19.258Z,12.43
2022-10-09T12:22:22.395Z,12.43
2022-10-09T12:27:22.886Z,12.54
2022-10-09T12:29:57.831Z,12.45
2022-10-09T12:32:26.277Z,12.45
2022-10-09T12:36:12.543Z,12.61
2022-10-09T12:37:20.762Z,12.61
2022-10-09T12:42:22.132Z,12.64
2022-10-09T12:44:56.833Z,12.78
2022-10-09T12:47:22.383Z,12.78
2022-10-09T12:52:18.127Z,13.25
2022-10-09T12:57:21.771Z,13.59
2022-10-09T12:57:29.511Z,13.59
2022-10-09T13:00:39.026Z,13.66
2022-10-09T13:02:19.204Z,13.66
2022-10-09T13:07:21.127Z,14.15
2022-10-09T13:12:22.145Z,14.14
2022-10-09T13:17:23.581Z,14.37
2022-10-09T13:22:20.286Z,14.37
2022-10-09T13:27:19.166Z,14.29
2022-10-09T13:32:18.994Z,14.42
2022-10-09T13:37:19.298Z,14.38
2022-10-09T13:42:20.321Z,14.03
2022-10-09T13:47:23.382Z,13.93
2022-10-09T13:52:18.152Z,13.95
2022-10-09T13:57:18.409Z,14.13
2022-10-09T14:02:18.170Z,13.94
2022-10-09T14:07:18.053Z,13.87
2022-10-09T14:12:18.263Z,13.91
2022-10-09T14:17:18.361Z,14.26
2022-10-09T14:22:18.328Z,14.46
2022-10-09T14:27:18.252Z,13.90
2022-10-09T14:32:17.923Z,13.76
2022-10-09T14:37:36.928Z,13.64
2022-10-09T14:42:18.335Z,13.29
2022-10-09T14:47:17.907Z,12.97
2022-10-09T14:52:17.922Z,12.88
2022-10-09T14:57:18.221Z,12.75
2022-10-09T15:02:18.618Z,12.51
2022-10-09T15:07:18.069Z,12.37
2022-10-09T15:12:18.694Z,12.23
2022-10-09T15:17:17.990Z,12.17
2022-10-09T15:22:18.055Z,12.07
2022-10-09T15:27:18.561Z,11.96
2022-10-09T15:32:18.035Z,11.91
2022-10-09T15:37:18.121Z,11.74
2022-10-09T15:42:18.426Z,11.60
2022-10-09T15:47:27.089Z,11.49
2022-10-09T15:52:17.883Z,11.41
2022-10-09T15:57:18.472Z,11.40
2022-10-09T16:02:17.854Z,11.26
2022-10-09T16:07:17.915Z,11.15
2022-10-09T16:12:18.196Z,11.13
2022-10-09T16:17:17.971Z,11.05
2022-10-09T16:22:17.983Z,11.03
2022-10-09T16:27:18.357Z,11.00
2022-10-09T16:32:18.576Z,10.96
2022-10-09T16:37:17.896Z,10.88
2022-10-09T16:42:18.197Z,10.86
2022-10-09T16:47:17.870Z,10.79
2022-10-09T16:52:17.891Z,10.77
2022-10-09T16:57:18.955Z,10.75
2022-10-09T17:02:17.923Z,10.70
2022-10-09T17:07:18.538Z,10.60
2022-10-09T17:12:18.056Z,10.55
2022-10-09T17:17:17.898Z,10.49
2022-10-09T17:22:17.825Z,10.40
2022-10-09T17:27:18.808Z,10.33
2022-10-09T17:32:17.787Z,10.24
2022-10-09T17:37:18.058Z,10.14
2022-10-09T17:42:18.254Z,10.05
2022-10-09T17:47:17.750Z,9.99
2022-10-09T17:52:17.907Z,9.90
2022-10-09T17:57:18.608Z,9.79
2022-10-09T18:02:17.967Z,9.72
2022-10-09T18:07:19.282Z,9.65
2022-10-09T18:12:18.303Z,9.57
2022-10-09T18:17:17.813Z,9.47
2022-10-09T18:22:17.951Z,9.38
2022-10-09T18:26:39.150Z,9.27
2022-10-09T18:27:17.902Z,9.27
2022-10-09T18:32:18.048Z,9.21
2022-10-09T18:37:19.143Z,9.16
2022-10-09T18:42:17.756Z,9.12
2022-10-09T18:45:43.649Z,9.07
2022-10-09T18:47:22.049Z,9.07
2022-10-09T18:52:18.849Z,8.97
2022-10-09T18:57:19.037Z,8.92
2022-10-09T19:02:19.123Z,8.84
2022-10-09T19:07:17.950Z,8.77
2022-10-09T19:17:18.780Z,8.67
2022-10-09T19:22:22.944Z,8.63
2022-10-09T19:27:18.022Z,8.58
2022-10-09T19:32:21.557Z,8.56
2022-10-09T19:37:18.097Z,8.49
2022-10-09T19:42:18.343Z,8.41
2022-10-09T19:47:18.338Z,8.34
2022-10-09T19:52:19.103Z,8.30
2022-10-09T19:57:17.685Z,8.22
2022-10-09T20:02:18.189Z,8.16
2022-10-09T20:05:33.113Z,8.08
2022-10-09T20:07:17.665Z,8.08
2022-10-09T20:12:18.333Z,8.02
2022-10-09T20:14:30.969Z,7.97
2022-10-09T20:17:17.749Z,7.97
2022-10-09T20:22:17.721Z,7.90
2022-10-09T20:27:18.067Z,7.87
2022-10-09T20:32:17.792Z,7.81
2022-10-09T20:34:25.926Z,7.75
2022-10-09T20:37:17.663Z,7.75
2022-10-09T20:42:18.061Z,7.68
2022-10-09T20:47:17.703Z,7.59
2022-10-09T20:52:17.943Z,7.57
2022-10-09T20:57:17.825Z,7.53
2022-10-09T21:02:17.794Z,7.50
2022-10-09T21:07:17.653Z,7.46
2022-10-09T21:12:17.928Z,7.38
2022-10-09T21:17:17.609Z,7.29
2022-10-09T21:22:17.779Z,7.25
2022-10-09T21:27:17.998Z,7.26
2022-10-09T21:32:17.594Z,7.25
2022-10-09T21:37:21.864Z,7.24
2022-10-09T21:42:18.725Z,7.21
2022-10-09T21:47:17.987Z,7.10
2022-10-09T21:52:17.698Z,7.11
2022-10-09T21:57:17.983Z,7.02
2022-10-09T22:02:17.624Z,6.98
2022-10-09T22:07:17.728Z,6.95
2022-10-09T22:12:19.099Z,6.91
2022-10-09T22:17:17.685Z,6.90
2022-10-09T22:19:44.467Z,6.86
2022-10-09T22:22:17.711Z,6.86
2022-10-09T22:27:18.510Z,6.82
2022-10-09T22:33:43.246Z,6.72
2022-10-09T22:37:17.590Z,6.72
2022-10-09T22:40:15.304Z,6.65
2022-10-09T22:42:17.604Z,6.65
2022-10-09T22:47:17.823Z,6.51
2022-10-09T22:52:17.806Z,6.49
2022-10-09T22:57:17.960Z,6.46
2022-10-09T23:02:17.569Z,6.37
2022-10-09T23:06:05.433Z,6.25
2022-10-09T23:07:14.024Z,6.25
2022-10-09T23:07:17.263Z,6.25
2022-10-09T23:07:35.628Z,6.25
2022-10-09T23:12:17.583Z,6.26
2022-10-09T23:17:18.851Z,6.22
2022-10-09T23:21:30.598Z,6.19
2022-10-09T23:22:19.268Z,6.19
2022-10-09T23:27:17.603Z,6.17
2022-10-09T23:32:17.914Z,6.18
2022-10-09T23:37:17.503Z,6.15
2022-10-09T23:42:17.596Z,5.96
2022-10-09T23:47:17.991Z,5.94
2022-10-09T23:57:18.131Z,5.80
